Time;durP1;ratioP1;P1;durP2;ratioP2;P2;SDS_P1;SDS_P2;PMS_P1;PMS_P2;Temp;Humidity;BMP_temperature;BMP_pressure;BME280_temperature;BME280_humidity;BME280_pressure;Samples;Min_cycle;Max_cycle;Signal;HPM_P1;HPM_P2
2021/12/04 00:00:23;;;;;;;2.30;2.10;;;6.80;83.20;;;;;;944005;151;27393;-72
2021/12/04 00:02:46;;;;;;;2.60;2.40;;;6.80;83.30;;;;;;947071;151;27391;-74
2021/12/04 00:05:13;;;;;;;2.10;1.90;;;6.80;83.50;;;;;;934410;151;27497;-74
2021/12/04 00:07:39;;;;;;;2.40;2.20;;;6.80;83.70;;;;;;938801;153;27333;-72
2021/12/04 00:10:06;;;;;;;2.60;1.80;;;6.80;83.70;;;;;;933291;152;27398;-73
2021/12/04 00:12:34;;;;;;;2.30;2.10;;;6.80;83.90;;;;;;929952;152;27310;-73
2021/12/04 00:15:00;;;;;;;3.00;2.00;;;6.70;83.90;;;;;;927068;153;27721;-73
2021/12/04 00:17:26;;;;;;;2.00;1.80;;;6.80;84.00;;;;;;926421;153;27907;-73
2021/12/04 00:19:52;;;;;;;2.07;1.97;;;6.80;84.20;;;;;;930112;154;27319;-73
2021/12/04 00:22:19;;;;;;;2.33;2.07;;;6.80;84.20;;;;;;948979;149;27329;-73
2021/12/04 00:24:46;;;;;;;2.20;2.00;;;6.80;84.20;;;;;;945291;151;27330;-72
2021/12/04 00:27:12;;;;;;;2.83;2.07;;;6.80;84.20;;;;;;941238;151;27254;-72
2021/12/04 00:29:39;;;;;;;2.07;1.97;;;6.80;84.20;;;;;;936400;151;27286;-72
2021/12/04 00:32:13;;;;;;;2.10;1.90;;;6.80;84.20;;;;;;936722;150;27794;-72
2021/12/04 00:34:37;;;;;;;2.30;2.07;;;6.80;84.20;;;;;;937394;151;27807;-73
2021/12/04 00:37:29;;;;;;;4.97;1.93;;;6.80;84.20;;;;;;940429;151;27414;-73
2021/12/04 00:50:51;;;;;;;2.87;1.73;;;6.80;84.00;;;;;;933521;152;27397;-72
2021/12/04 00:53:18;;;;;;;1.97;1.87;;;6.80;84.00;;;;;;949728;151;27410;-73
2021/12/04 00:55:44;;;;;;;2.30;2.10;;;6.80;84.00;;;;;;940719;151;27400;-73
2021/12/04 00:58:11;;;;;;;2.40;1.80;;;6.80;84.00;;;;;;936856;152;27377;-72
2021/12/04 01:00:38;;;;;;;1.90;1.67;;;6.80;84.00;;;;;;943775;149;27311;-73
2021/12/04 01:03:04;;;;;;;2.03;1.80;;;6.80;84.00;;;;;;943521;149;27339;-72
2021/12/04 01:08:07;;;;;;;1.90;1.67;;;6.80;84.00;;;;;;954281;144;81353;-79
2021/12/04 01:10:35;;;;;;;1.77;1.67;;;6.80;84.00;;;;;;950612;147;27284;-80
2021/12/04 01:13:04;;;;;;;1.83;1.73;;;6.80;84.00;;;;;;955627;147;27331;-80
2021/12/04 01:15:28;;;;;;;1.90;1.70;;;6.80;84.00;;;;;;956181;146;27269;-80
2021/12/04 01:17:54;;;;;;;1.77;1.63;;;6.80;84.00;;;;;;953555;147;27373;-79
2021/12/04 01:20:21;;;;;;;2.13;1.73;;;6.80;84.00;;;;;;951178;148;27328;-80
2021/12/04 01:22:47;;;;;;;3.80;2.13;;;6.80;83.90;;;;;;956820;148;27232;-80
2021/12/04 01:25:14;;;;;;;3.13;1.90;;;6.90;84.70;;;;;;951047;148;27319;-80
2021/12/04 01:27:42;;;;;;;2.87;1.80;;;6.90;83.90;;;;;;950701;147;27306;-80
2021/12/04 01:30:09;;;;;;;2.77;2.00;;;6.90;83.90;;;;;;949314;147;27312;-80
2021/12/04 01:32:36;;;;;;;1.90;1.70;;;6.90;84.00;;;;;;948887;148;27325;-80
2021/12/04 01:35:03;;;;;;;1.93;1.83;;;6.90;84.20;;;;;;950596;147;27348;-79
2021/12/04 01:37:29;;;;;;;2.07;1.70;;;6.90;84.30;;;;;;948998;148;27309;-79
2021/12/04 01:39:56;;;;;;;2.33;1.83;;;6.90;84.50;;;;;;951480;147;27409;-80
2021/12/04 01:42:22;;;;;;;2.53;2.00;;;6.90;84.50;;;;;;950917;148;27432;-80
2021/12/04 01:44:49;;;;;;;1.90;1.77;;;6.90;84.60;;;;;;951919;147;27340;-79
2021/12/04 01:47:16;;;;;;;1.90;1.80;;;6.80;84.60;;;;;;952542;148;28867;-80
2021/12/04 01:49:51;;;;;;;1.90;1.70;;;6.80;84.70;;;;;;924361;151;27364;-80
2021/12/04 01:52:20;;;;;;;1.97;1.87;;;6.80;84.90;;;;;;946852;146;27294;-80
2021/12/04 01:54:46;;;;;;;1.97;1.50;;;6.70;85.00;;;;;;948730;146;27311;-79
2021/12/04 01:57:13;;;;;;;2.80;1.73;;;6.70;85.10;;;;;;948797;147;27283;-80
2021/12/04 01:59:39;;;;;;;2.13;1.97;;;6.60;85.10;;;;;;953268;146;27270;-80
2021/12/04 02:02:06;;;;;;;3.67;2.00;;;6.60;85.10;;;;;;949155;148;27400;-80
2021/12/04 02:04:32;;;;;;;1.73;1.63;;;6.50;85.20;;;;;;950041;147;27392;-80
2021/12/04 02:07:04;;;;;;;2.70;1.80;;;6.50;85.30;;;;;;944242;147;27790;-80
2021/12/04 02:09:26;;;;;;;1.80;1.60;;;6.40;85.50;;;;;;942331;150;27406;-79
2021/12/04 02:11:52;;;;;;;2.13;1.87;;;6.40;85.60;;;;;;950731;148;27337;-80
2021/12/04 02:14:19;;;;;;;2.20;1.80;;;6.30;85.80;;;;;;947645;146;27325;-79
2021/12/04 02:16:45;;;;;;;2.10;1.90;;;6.30;85.90;;;;;;943853;146;27312;-79
2021/12/04 02:19:12;;;;;;;2.30;1.70;;;6.20;86.00;;;;;;944984;148;27812;-79
2021/12/04 02:21:39;;;;;;;4.47;1.90;;;6.20;86.10;;;;;;946579;148;27368;-79
2021/12/04 02:24:05;;;;;;;1.77;1.67;;;6.20;86.20;;;;;;947571;148;27428;-79
2021/12/04 02:26:32;;;;;;;1.50;1.47;;;6.10;86.20;;;;;;943549;149;27432;-79
2021/12/04 02:28:58;;;;;;;3.37;1.67;;;6.10;86.30;;;;;;946388;148;27339;-79
2021/12/04 02:31:25;;;;;;;3.30;1.53;;;6.00;86.40;;;;;;944983;151;27305;-79
2021/12/04 02:33:51;;;;;;;1.97;1.67;;;6.00;86.50;;;;;;939029;149;27439;-79
2021/12/04 02:36:18;;;;;;;1.53;1.43;;;5.90;86.50;;;;;;942239;151;27316;-79
2021/12/04 02:38:51;;;;;;;1.70;1.60;;;5.90;86.60;;;;;;946634;148;27410;-79
2021/12/04 02:41:12;;;;;;;3.53;1.50;;;5.80;86.50;;;;;;944013;149;27403;-79
2021/12/04 02:43:39;;;;;;;2.37;1.73;;;5.80;87.50;;;;;;927860;151;27826;-79
2021/12/04 02:46:05;;;;;;;1.87;1.77;;;5.70;86.90;;;;;;937241;150;27315;-79
2021/12/04 02:48:32;;;;;;;2.40;1.70;;;5.70;87.10;;;;;;948542;148;27328;-79
2021/12/04 02:50:59;;;;;;;1.83;1.73;;;5.60;87.20;;;;;;951774;146;27353;-79
2021/12/04 02:53:25;;;;;;;1.87;1.77;;;5.60;87.40;;;;;;943764;148;27309;-79
2021/12/04 02:55:53;;;;;;;1.80;1.70;;;5.60;87.60;;;;;;945650;149;27421;-79
2021/12/04 02:58:18;;;;;;;2.00;1.80;;;5.50;87.80;;;;;;943111;148;27338;-79
2021/12/04 03:00:50;;;;;;;1.60;1.50;;;5.50;87.80;;;;;;945418;148;27374;-79
2021/12/04 03:03:14;;;;;;;1.87;1.77;;;5.50;87.80;;;;;;947163;146;27444;-79
2021/12/04 03:05:44;;;;;;;2.60;1.80;;;5.50;87.90;;;;;;956837;147;27792;-79
2021/12/04 03:08:08;;;;;;;1.90;1.80;;;5.40;88.00;;;;;;951722;147;27379;-79
2021/12/04 03:10:35;;;;;;;2.67;1.80;;;5.40;88.10;;;;;;950143;148;27370;-79
2021/12/04 03:13:04;;;;;;;1.97;1.87;;;5.40;88.60;;;;;;952024;146;27391;-79
2021/12/04 03:15:28;;;;;;;1.97;1.77;;;5.30;88.20;;;;;;949406;146;27497;-79
2021/12/04 03:17:55;;;;;;;2.20;2.00;;;5.30;88.20;;;;;;950010;146;27386;-79
2021/12/04 03:20:21;;;;;;;1.80;1.70;;;5.30;88.30;;;;;;941961;149;27326;-79
2021/12/04 03:22:50;;;;;;;2.37;1.57;;;5.20;88.20;;;;;;942899;148;27840;-79
2021/12/04 03:25:18;;;;;;;1.80;1.70;;;5.20;88.20;;;;;;934194;150;27782;-79
2021/12/04 03:27:45;;;;;;;1.70;1.60;;;5.10;88.20;;;;;;942961;149;28231;-79
2021/12/04 03:30:12;;;;;;;1.83;1.73;;;5.10;88.30;;;;;;942435;149;27377;-79
2021/12/04 03:35:24;;;;;;;1.70;1.60;;;5.00;88.80;;;;;;956553;149;27378;-81
2021/12/04 03:43:00;;;;;;;1.60;1.50;;;4.80;89.50;;;;;;955917;148;27430;-81
2021/12/04 03:45:26;;;;;;;2.10;1.77;;;4.80;89.70;;;;;;945406;149;27318;-81
2021/12/04 03:47:57;;;;;;;2.33;2.03;;;4.80;90.00;;;;;;937514;148;27312;-81
2021/12/04 03:50:19;;;;;;;1.80;1.70;;;4.80;90.10;;;;;;931037;153;27337;-81
2021/12/04 03:52:46;;;;;;;1.93;1.83;;;4.80;90.20;;;;;;956685;148;27383;-81
2021/12/04 03:55:12;;;;;;;2.10;2.00;;;4.80;90.30;;;;;;934743;151;27355;-81
2021/12/04 03:57:44;;;;;;;1.90;1.80;;;4.80;90.40;;;;;;947259;146;28258;-81
2021/12/04 04:00:06;;;;;;;3.60;2.17;;;4.80;90.50;;;;;;946331;151;27248;-81
2021/12/04 04:02:32;;;;;;;2.20;2.00;;;4.80;90.90;;;;;;941369;150;27337;-81
2021/12/04 04:04:59;;;;;;;2.07;1.97;;;4.80;90.50;;;;;;942919;148;27816;-82
2021/12/04 04:07:26;;;;;;;2.00;1.90;;;4.80;90.50;;;;;;937366;151;27427;-82
2021/12/04 04:09:52;;;;;;;2.70;2.27;;;4.80;90.60;;;;;;945748;151;27417;-82
2021/12/04 04:12:19;;;;;;;2.27;2.07;;;4.80;90.70;;;;;;947601;149;27305;-82
2021/12/04 04:14:45;;;;;;;2.20;2.00;;;4.80;90.70;;;;;;959682;146;27353;-82
2021/12/04 04:17:12;;;;;;;2.53;2.13;;;4.70;90.80;;;;;;933197;151;27372;-82
2021/12/04 04:19:39;;;;;;;2.57;2.37;;;4.70;90.90;;;;;;943515;151;27294;-82
2021/12/04 04:22:05;;;;;;;2.33;2.03;;;4.70;91.00;;;;;;939919;151;27313;-82
2021/12/04 04:24:32;;;;;;;2.20;2.10;;;4.80;91.00;;;;;;942161;151;27305;-82
2021/12/04 04:26:58;;;;;;;2.03;1.93;;;4.80;91.00;;;;;;947002;151;27406;-82
2021/12/04 04:29:25;;;;;;;2.57;2.27;;;4.80;90.90;;;;;;945304;151;27329;-82
2021/12/04 04:31:53;;;;;;;2.00;1.90;;;4.80;90.90;;;;;;946828;151;27294;-82
2021/12/04 04:34:29;;;;;;;2.57;2.37;;;4.70;90.90;;;;;;946638;148;27369;-82
2021/12/04 04:37:09;;;;;;;2.90;2.30;;;4.70;90.90;;;;;;940782;151;27310;-80
2021/12/04 05:12:02;;;;;;;2.70;2.50;;;4.40;91.40;;;;;;946692;148;27342;-80
2021/12/04 05:14:23;;;;;;;2.53;2.33;;;4.40;91.40;;;;;;944399;151;27424;-80
2021/12/04 05:16:52;;;;;;;2.63;2.43;;;4.30;91.60;;;;;;940575;150;27306;-80
2021/12/04 05:19:27;;;;;;;2.97;2.77;;;4.30;91.70;;;;;;945501;151;27300;-80
2021/12/04 05:21:52;;;;;;;3.63;2.57;;;4.30;91.70;;;;;;934848;149;27392;-80
2021/12/04 05:24:18;;;;;;;2.50;2.30;;;4.30;91.70;;;;;;936852;151;27462;-80
2021/12/04 05:26:45;;;;;;;2.07;1.97;;;4.40;91.90;;;;;;950612;148;27317;-80
2021/12/04 05:29:11;;;;;;;2.57;2.37;;;4.30;91.90;;;;;;934193;153;27379;-80
2021/12/04 05:31:38;;;;;;;2.70;2.50;;;4.30;92.00;;;;;;935126;150;27301;-80
2021/12/04 05:34:05;;;;;;;2.40;2.20;;;4.30;92.10;;;;;;942734;149;27351;-80
2021/12/04 05:36:31;;;;;;;2.73;2.20;;;4.40;92.30;;;;;;934787;153;27574;-80
2021/12/04 05:38:58;;;;;;;2.73;2.53;;;4.40;92.40;;;;;;950017;148;27293;-80
2021/12/04 05:41:25;;;;;;;2.00;1.90;;;4.40;92.50;;;;;;953261;150;27402;-80
2021/12/04 05:43:51;;;;;;;2.57;2.30;;;4.40;92.50;;;;;;946148;150;27349;-80
2021/12/04 05:46:20;;;;;;;3.07;2.57;;;4.40;92.60;;;;;;946575;148;27299;-80
2021/12/04 05:48:54;;;;;;;1.87;1.77;;;4.40;92.70;;;;;;951529;148;27309;-80
2021/12/04 05:51:33;;;;;;;2.30;2.10;;;4.40;92.80;;;;;;943376;148;27301;-80
2021/12/04 05:56:18;;;;;;;2.00;1.90;;;4.50;92.90;;;;;;953509;148;27887;-80
2021/12/04 05:58:45;;;;;;;2.20;2.00;;;4.50;92.90;;;;;;948821;150;27299;-80
2021/12/04 06:01:13;;;;;;;2.90;2.37;;;4.50;93.00;;;;;;944332;148;27425;-80
2021/12/04 06:03:38;;;;;;;2.57;2.33;;;4.50;93.00;;;;;;948130;148;27301;-80
2021/12/04 06:06:05;;;;;;;2.20;2.00;;;4.50;93.10;;;;;;950906;148;27341;-80
2021/12/04 06:08:31;;;;;;;2.60;2.40;;;4.50;93.20;;;;;;954008;148;27473;-80
2021/12/04 06:10:58;;;;;;;2.27;2.07;;;4.60;93.30;;;;;;948813;148;27338;-80
2021/12/04 06:13:25;;;;;;;2.43;2.23;;;4.60;93.20;;;;;;951848;147;27327;-80
2021/12/04 06:15:51;;;;;;;2.30;2.10;;;4.60;93.20;;;;;;940615;147;27322;-80
2021/12/04 06:18:18;;;;;;;2.50;2.30;;;4.60;93.30;;;;;;947671;150;27346;-80
2021/12/04 06:23:26;;;;;;;3.10;2.10;;;4.60;93.40;;;;;;902952;156;27915;-80
2021/12/04 06:25:52;;;;;;;2.47;2.07;;;4.70;93.40;;;;;;931407;150;27330;-80
2021/12/04 06:28:19;;;;;;;2.20;2.10;;;4.70;93.40;;;;;;953364;148;27312;-80
2021/12/04 06:30:46;;;;;;;2.30;2.20;;;4.70;93.50;;;;;;951735;147;27407;-80
2021/12/04 06:33:12;;;;;;;2.27;2.07;;;4.70;93.50;;;;;;951019;148;27309;-80
2021/12/04 06:35:41;;;;;;;2.97;2.77;;;4.70;93.60;;;;;;944188;148;27325;-80
2021/12/04 06:38:08;;;;;;;1.90;1.77;;;4.80;93.80;;;;;;942477;148;27454;-80
2021/12/04 06:40:35;;;;;;;2.10;2.00;;;4.70;93.80;;;;;;949566;150;27316;-80
2021/12/04 06:43:01;;;;;;;2.20;2.00;;;4.80;93.90;;;;;;942197;149;27353;-80
2021/12/04 06:45:29;;;;;;;1.97;1.83;;;4.80;94.00;;;;;;954049;147;27373;-80
2021/12/04 06:48:00;;;;;;;2.13;1.90;;;4.80;94.00;;;;;;951782;147;27366;-80
2021/12/04 06:50:43;;;;;;;2.00;1.80;;;4.80;94.00;;;;;;951638;148;27314;-80
2021/12/04 06:53:18;;;;;;;1.93;1.83;;;4.90;94.10;;;;;;951993;150;27293;-80
2021/12/04 06:55:38;;;;;;;2.93;2.33;;;4.90;94.10;;;;;;951066;150;27947;-80
2021/12/04 06:57:58;;;;;;;1.70;1.60;;;4.90;94.10;;;;;;950630;147;27374;-80
2021/12/04 07:00:26;;;;;;;2.50;2.20;;;4.90;94.20;;;;;;951319;150;27271;-81
2021/12/04 07:02:52;;;;;;;3.47;2.33;;;5.00;94.30;;;;;;951758;149;27295;-80
2021/12/04 07:05:18;;;;;;;1.83;1.73;;;5.00;94.30;;;;;;953292;148;27328;-80
2021/12/04 07:07:45;;;;;;;1.77;1.67;;;5.00;94.20;;;;;;951965;148;27421;-80
2021/12/04 07:10:11;;;;;;;3.43;1.90;;;5.00;94.30;;;;;;952011;147;27302;-80
2021/12/04 07:12:38;;;;;;;2.27;2.07;;;5.10;94.20;;;;;;967576;147;27305;-80
2021/12/04 07:15:04;;;;;;;2.00;1.90;;;5.10;94.20;;;;;;942689;147;27422;-80
2021/12/04 07:17:34;;;;;;;2.40;2.20;;;5.10;94.10;;;;;;944852;150;27386;-80
2021/12/04 07:19:58;;;;;;;2.00;1.90;;;5.10;94.20;;;;;;952781;148;27378;-80
2021/12/04 07:22:24;;;;;;;4.60;2.50;;;5.20;94.20;;;;;;943381;147;27434;-80
2021/12/04 07:24:51;;;;;;;1.97;1.87;;;5.20;94.20;;;;;;949080;148;27355;-80
2021/12/04 07:27:18;;;;;;;1.87;1.77;;;5.20;94.30;;;;;;940849;150;27414;-80
2021/12/04 07:29:44;;;;;;;2.00;1.90;;;5.20;94.30;;;;;;953437;150;27327;-80
2021/12/04 07:32:11;;;;;;;2.00;1.90;;;5.30;94.40;;;;;;950445;147;27430;-80
2021/12/04 07:34:37;;;;;;;1.90;1.80;;;5.30;94.80;;;;;;948291;148;27419;-80
2021/12/04 07:37:04;;;;;;;2.20;2.10;;;5.30;94.50;;;;;;947522;149;27299;-80
2021/12/04 07:39:30;;;;;;;1.90;1.80;;;5.30;94.50;;;;;;954495;148;27299;-80
2021/12/04 07:41:57;;;;;;;2.40;2.20;;;5.40;94.50;;;;;;948224;150;27375;-80
2021/12/04 07:44:23;;;;;;;2.53;2.33;;;5.40;94.60;;;;;;951502;148;27305;-80
2021/12/04 07:46:50;;;;;;;2.63;2.43;;;5.40;94.60;;;;;;952230;148;27331;-80
2021/12/04 07:49:17;;;;;;;2.73;2.50;;;5.40;94.60;;;;;;951289;148;27416;-80
2021/12/04 07:51:44;;;;;;;3.80;3.00;;;5.50;94.60;;;;;;947478;150;27405;-80
2021/12/04 07:54:10;;;;;;;2.90;2.70;;;5.50;94.60;;;;;;954090;150;27795;-80
2021/12/04 07:56:36;;;;;;;2.90;2.70;;;5.50;94.60;;;;;;952322;150;27744;-80
2021/12/04 07:59:03;;;;;;;3.10;2.90;;;5.60;94.60;;;;;;947875;150;27441;-80
2021/12/04 08:01:30;;;;;;;2.80;2.60;;;5.60;94.60;;;;;;939753;150;27375;-80
2021/12/04 08:03:56;;;;;;;3.00;2.70;;;5.60;94.60;;;;;;946362;150;27360;-80
2021/12/04 08:06:23;;;;;;;3.23;2.70;;;5.70;94.60;;;;;;950199;150;27303;-80
2021/12/04 08:08:52;;;;;;;2.90;2.60;;;5.70;94.60;;;;;;939777;148;27435;-80
2021/12/04 08:11:16;;;;;;;2.67;2.47;;;5.70;94.60;;;;;;941461;150;27270;-80
2021/12/04 08:13:43;;;;;;;2.93;2.67;;;5.70;94.60;;;;;;946532;149;27401;-80
2021/12/04 08:16:09;;;;;;;2.53;2.33;;;5.80;94.60;;;;;;949335;149;27391;-80
2021/12/04 08:18:36;;;;;;;4.33;2.40;;;5.80;94.60;;;;;;942318;151;27307;-80
2021/12/04 08:21:02;;;;;;;2.47;2.27;;;5.80;94.70;;;;;;938674;151;27323;-80
2021/12/04 08:23:29;;;;;;;3.20;2.70;;;5.90;94.80;;;;;;938565;151;27344;-80
2021/12/04 08:25:56;;;;;;;2.17;2.07;;;5.90;94.80;;;;;;961998;146;27271;-80
2021/12/04 08:28:23;;;;;;;2.57;2.37;;;5.90;94.90;;;;;;942594;150;27262;-80
2021/12/04 08:30:50;;;;;;;2.73;1.97;;;6.00;95.00;;;;;;941344;149;27306;-80
2021/12/04 08:33:16;;;;;;;2.37;2.20;;;6.10;95.00;;;;;;945777;148;28320;-80
2021/12/04 08:35:45;;;;;;;2.13;2.03;;;6.10;95.00;;;;;;944212;151;27300;-80
2021/12/04 08:38:12;;;;;;;2.17;2.07;;;6.20;95.00;;;;;;948567;151;27391;-80
2021/12/04 08:40:39;;;;;;;2.50;2.30;;;6.20;95.00;;;;;;942540;151;27317;-80
2021/12/04 08:43:05;;;;;;;2.37;2.17;;;6.30;95.10;;;;;;948419;147;27977;-80
2021/12/04 08:45:32;;;;;;;2.03;1.93;;;6.30;95.10;;;;;;943193;148;27325;-80
2021/12/04 08:47:59;;;;;;;2.10;1.90;;;6.40;95.10;;;;;;940336;151;27297;-80
2021/12/04 08:50:25;;;;;;;2.60;1.93;;;6.40;95.00;;;;;;940679;151;27351;-80
2021/12/04 08:52:52;;;;;;;2.20;2.10;;;6.50;95.00;;;;;;943531;149;27350;-80
2021/12/04 08:55:18;;;;;;;2.20;2.10;;;6.50;94.90;;;;;;941924;149;27318;-80
2021/12/04 08:57:45;;;;;;;1.83;1.73;;;6.60;94.90;;;;;;939029;151;27354;-80
2021/12/04 09:00:11;;;;;;;2.07;1.97;;;6.60;94.90;;;;;;942113;149;27368;-80
2021/12/04 09:02:38;;;;;;;1.90;1.80;;;6.70;94.90;;;;;;943176;151;27323;-79
2021/12/04 09:05:05;;;;;;;2.07;1.97;;;6.70;94.90;;;;;;942671;151;27347;-80
2021/12/04 09:07:31;;;;;;;2.40;2.20;;;6.80;94.90;;;;;;944019;151;27298;-80
2021/12/04 09:09:58;;;;;;;2.37;2.20;;;6.80;94.90;;;;;;941326;149;27459;-80
2021/12/04 09:12:24;;;;;;;2.70;2.37;;;6.90;94.90;;;;;;942961;151;27357;-80
2021/12/04 09:14:51;;;;;;;2.57;2.37;;;6.90;94.80;;;;;;940023;149;27777;-80
2021/12/04 09:17:18;;;;;;;2.60;2.40;;;6.90;94.70;;;;;;944184;148;27902;-80
2021/12/04 09:19:44;;;;;;;2.53;2.33;;;7.00;94.70;;;;;;944690;148;27333;-80
2021/12/04 09:22:16;;;;;;;2.57;2.37;;;7.00;94.60;;;;;;944949;148;27322;-80
2021/12/04 09:24:40;;;;;;;2.83;2.63;;;7.10;94.60;;;;;;943212;146;27282;-80
2021/12/04 09:27:13;;;;;;;2.93;2.70;;;7.10;94.60;;;;;;941515;151;27899;-80
2021/12/04 10:21:08;;;;;;;3.20;2.87;;;7.50;94.30;;;;;;942761;149;27370;-80
2021/12/04 10:34:35;;;;;;;4.83;3.33;;;7.70;94.30;;;;;;940497;148;27480;-79
2021/12/04 10:37:08;;;;;;;3.17;2.97;;;7.70;94.20;;;;;;943009;151;27430;-79
2021/12/04 10:39:35;;;;;;;3.80;3.33;;;7.70;94.20;;;;;;936722;150;27475;-79
2021/12/04 10:42:04;;;;;;;3.00;2.70;;;7.70;94.10;;;;;;948208;148;27797;-79
2021/12/04 10:44:28;;;;;;;3.40;3.07;;;7.70;94.10;;;;;;951581;146;27314;-79
2021/12/04 10:46:54;;;;;;;2.97;2.77;;;7.80;94.20;;;;;;948083;146;27400;-80
2021/12/04 10:49:41;;;;;;;3.03;2.80;;;7.80;94.30;;;;;;968257;146;27327;-79
2021/12/04 10:52:03;;;;;;;3.03;2.80;;;7.80;94.60;;;;;;955704;146;27391;-79
2021/12/04 10:54:30;;;;;;;4.73;2.93;;;7.90;94.70;;;;;;947324;151;27299;-79
2021/12/04 10:57:17;;;;;;;2.97;2.77;;;7.90;94.80;;;;;;947272;151;27402;-79
2021/12/04 10:59:31;;;;;;;2.90;2.70;;;7.90;94.90;;;;;;939158;151;27698;-79
2021/12/04 11:02:01;;;;;;;2.80;2.60;;;8.00;94.90;;;;;;940892;151;27361;-79
2021/12/04 11:18:42;;;;;;;2.57;2.37;;;8.10;94.40;;;;;;952354;150;27300;-79
2021/12/04 11:23:59;;;;;;;2.60;2.20;;;8.10;94.40;;;;;;944530;150;27411;-79
2021/12/04 11:34:55;;;;;;;2.97;2.20;;;8.10;94.20;;;;;;933431;147;27868;-79
2021/12/04 11:42:28;;;;;;;2.47;2.20;;;8.10;94.30;;;;;;944055;150;27361;-80
2021/12/04 11:44:57;;;;;;;2.47;2.27;;;8.10;94.30;;;;;;943699;148;27389;-80
2021/12/04 11:47:20;;;;;;;2.27;2.17;;;8.10;94.30;;;;;;949210;148;27388;-80
2021/12/04 11:49:47;;;;;;;2.37;2.17;;;8.10;94.40;;;;;;953050;150;27292;-80
2021/12/04 11:52:14;;;;;;;2.73;2.27;;;8.10;94.50;;;;;;961455;148;27391;-80
2021/12/04 11:54:46;;;;;;;2.90;2.70;;;8.10;94.60;;;;;;956976;147;27417;-80
2021/12/04 11:57:12;;;;;;;2.90;2.60;;;8.10;94.70;;;;;;954100;148;27368;-80
2021/12/04 11:59:39;;;;;;;2.57;2.37;;;8.10;94.90;;;;;;962068;148;27364;-80
2021/12/04 12:02:05;;;;;;;2.37;2.20;;;8.10;95.00;;;;;;958445;148;27437;-80
2021/12/04 12:04:38;;;;;;;2.37;2.27;;;8.20;94.90;;;;;;948353;148;27320;-80
2021/12/04 12:07:16;;;;;;;3.23;2.57;;;8.20;94.90;;;;;;949411;148;27304;-80
2021/12/04 12:09:42;;;;;;;2.80;2.57;;;8.20;94.90;;;;;;963902;148;27326;-80
2021/12/04 12:12:12;;;;;;;2.90;2.60;;;8.20;95.00;;;;;;949485;148;27824;-80
2021/12/04 12:14:41;;;;;;;3.30;2.80;;;8.20;95.00;;;;;;956273;148;27310;-80
2021/12/04 12:17:05;;;;;;;3.00;2.80;;;8.20;95.10;;;;;;948498;148;27340;-79
2021/12/04 12:19:36;;;;;;;3.30;3.00;;;8.30;95.20;;;;;;952545;147;27380;-79
2021/12/04 12:22:04;;;;;;;2.87;2.67;;;8.30;95.20;;;;;;947793;148;27308;-79
2021/12/04 12:25:16;;;;;;;3.20;3.00;;;8.30;95.10;;;;;;950051;147;27347;-80
2021/12/04 12:38:07;;;;;;;3.27;3.00;;;8.40;94.50;;;;;;939898;150;27387;-80
2021/12/04 12:40:34;;;;;;;2.90;2.70;;;8.40;94.80;;;;;;949252;150;27323;-80
2021/12/04 12:43:01;;;;;;;3.63;3.33;;;8.30;95.00;;;;;;953067;150;27693;-80
2021/12/04 12:45:29;;;;;;;3.30;3.00;;;8.30;95.20;;;;;;946699;147;27391;-80
2021/12/04 12:47:59;;;;;;;3.47;3.07;;;8.30;95.30;;;;;;947710;147;27273;-80
2021/12/04 12:50:26;;;;;;;4.17;3.00;;;8.40;95.30;;;;;;948538;150;27428;-80
2021/12/04 12:53:02;;;;;;;3.70;3.40;;;8.40;95.30;;;;;;951511;147;27301;-80
2021/12/04 12:55:32;;;;;;;3.33;3.10;;;8.40;95.40;;;;;;950729;148;27344;-80
2021/12/04 12:57:55;;;;;;;3.27;2.97;;;8.40;95.40;;;;;;954676;148;27459;-80
2021/12/04 13:14:16;;;;;;;2.90;2.70;;;8.50;95.30;;;;;;954558;148;27320;-80
2021/12/04 13:16:43;;;;;;;3.83;3.53;;;8.50;95.30;;;;;;945657;147;27365;-80
2021/12/04 13:19:12;;;;;;;4.17;3.27;;;8.50;95.30;;;;;;945905;148;27377;-80
2021/12/04 13:21:38;;;;;;;3.70;3.40;;;8.50;95.30;;;;;;957759;148;27388;-81
2021/12/04 13:24:03;;;;;;;3.80;3.50;;;8.50;95.50;;;;;;947528;150;27292;-80
2021/12/04 13:26:32;;;;;;;3.83;3.53;;;8.50;95.50;;;;;;942352;150;27926;-81
2021/12/04 13:29:00;;;;;;;3.83;3.53;;;8.60;95.50;;;;;;942154;150;27443;-80
2021/12/04 13:31:25;;;;;;;3.90;3.60;;;8.60;95.40;;;;;;952778;148;27348;-80
2021/12/04 13:33:51;;;;;;;3.97;3.67;;;8.60;95.50;;;;;;953963;147;27295;-81
2021/12/04 13:36:18;;;;;;;3.70;3.40;;;8.60;95.50;;;;;;946881;147;27446;-81
2021/12/04 13:38:45;;;;;;;3.80;3.50;;;8.60;95.50;;;;;;946101;150;28157;-81
2021/12/04 13:41:11;;;;;;;3.67;3.37;;;8.60;95.40;;;;;;955033;150;27402;-81
2021/12/04 13:43:38;;;;;;;3.17;2.97;;;8.60;95.40;;;;;;953146;150;27305;-80
2021/12/04 13:46:05;;;;;;;3.33;3.10;;;8.60;95.40;;;;;;955697;147;27669;-80
2021/12/04 13:48:31;;;;;;;4.27;3.73;;;8.60;95.40;;;;;;954569;147;27308;-80
2021/12/04 13:50:59;;;;;;;4.03;3.73;;;8.60;95.40;;;;;;949069;147;27285;-80
2021/12/04 13:53:26;;;;;;;3.40;3.10;;;8.60;95.50;;;;;;946720;148;27338;-80
2021/12/04 13:55:54;;;;;;;3.43;3.17;;;8.50;95.50;;;;;;949926;149;27484;-80
2021/12/04 13:58:20;;;;;;;4.10;3.50;;;8.50;95.50;;;;;;953163;147;27394;-81
2021/12/04 14:00:47;;;;;;;3.40;3.10;;;8.50;95.50;;;;;;957124;147;27302;-81
2021/12/04 14:03:13;;;;;;;3.20;2.90;;;8.50;95.40;;;;;;953303;147;27396;-80
2021/12/04 14:05:40;;;;;;;3.23;2.93;;;8.50;95.30;;;;;;951311;147;27346;-80
2021/12/04 14:08:07;;;;;;;3.47;2.70;;;8.50;95.20;;;;;;953385;148;27317;-80
2021/12/04 14:10:41;;;;;;;3.47;3.17;;;8.50;95.10;;;;;;959097;148;27460;-80
2021/12/04 14:13:05;;;;;;;3.07;2.87;;;8.40;95.20;;;;;;955492;149;27409;-80
2021/12/04 14:15:32;;;;;;;2.90;2.70;;;8.40;95.10;;;;;;956057;148;28258;-80
2021/12/04 14:17:58;;;;;;;3.40;3.20;;;8.30;95.20;;;;;;959906;147;27278;-80
2021/12/04 14:20:25;;;;;;;3.40;3.20;;;8.30;95.20;;;;;;955211;147;27407;-80
2021/12/04 14:22:52;;;;;;;4.07;3.53;;;8.30;95.40;;;;;;955152;150;27342;-80
2021/12/04 14:25:18;;;;;;;3.83;3.53;;;8.30;95.60;;;;;;949394;147;27299;-80
2021/12/04 14:27:45;;;;;;;3.77;3.47;;;8.20;95.60;;;;;;951970;147;27832;-80
2021/12/04 14:30:17;;;;;;;3.53;3.23;;;8.20;95.80;;;;;;950081;147;27440;-80
2021/12/04 14:32:49;;;;;;;3.03;2.83;;;8.20;95.80;;;;;;955944;147;27368;-81
2021/12/04 14:35:12;;;;;;;3.03;2.80;;;8.20;95.90;;;;;;951512;147;27373;-81
2021/12/04 14:37:37;;;;;;;2.90;2.60;;;8.20;96.00;;;;;;951966;149;27316;-80
2021/12/04 14:40:03;;;;;;;2.80;2.43;;;8.20;96.00;;;;;;955415;147;27304;-80
2021/12/04 14:42:30;;;;;;;2.97;2.77;;;8.20;96.00;;;;;;955096;147;27449;-80
2021/12/04 14:44:57;;;;;;;2.60;2.40;;;8.20;96.00;;;;;;954565;150;27391;-80
2021/12/04 14:47:23;;;;;;;2.20;2.10;;;8.20;96.00;;;;;;956992;147;27372;-81
2021/12/04 14:49:50;;;;;;;3.20;2.33;;;8.10;95.60;;;;;;947854;150;27333;-80
2021/12/04 14:52:16;;;;;;;2.73;2.53;;;8.10;95.90;;;;;;951539;150;27259;-81
2021/12/04 14:54:43;;;;;;;3.30;2.67;;;8.10;96.00;;;;;;954720;148;27414;-81
2021/12/04 14:57:12;;;;;;;2.50;2.30;;;8.00;96.10;;;;;;953458;149;27393;-81
2021/12/04 14:59:39;;;;;;;2.87;2.00;;;7.90;96.30;;;;;;948516;150;27300;-81
2021/12/04 15:02:15;;;;;;;2.27;2.17;;;7.90;96.50;;;;;;957105;147;27393;-81
2021/12/04 15:04:41;;;;;;;2.50;2.27;;;7.90;96.80;;;;;;954068;147;27288;-81
2021/12/04 15:07:08;;;;;;;2.30;2.03;;;7.80;96.90;;;;;;946012;150;27309;-80
2021/12/04 15:09:34;;;;;;;2.77;2.57;;;7.80;97.10;;;;;;944929;147;27425;-81
2021/12/04 15:12:02;;;;;;;3.27;3.00;;;7.80;97.30;;;;;;952447;147;27293;-81
2021/12/04 15:14:33;;;;;;;2.73;2.53;;;7.70;97.60;;;;;;953832;148;27397;-80
2021/12/04 15:17:05;;;;;;;2.77;2.57;;;7.70;98.10;;;;;;949971;147;27408;-81
2021/12/04 15:19:40;;;;;;;2.13;2.03;;;7.70;98.20;;;;;;951740;147;27332;-81
2021/12/04 15:21:59;;;;;;;2.80;2.60;;;7.70;98.30;;;;;;951393;147;27381;-80
2021/12/04 15:24:25;;;;;;;2.97;2.77;;;7.70;98.40;;;;;;952783;147;27476;-80
2021/12/04 15:26:52;;;;;;;2.63;2.43;;;7.80;98.50;;;;;;950458;147;27406;-81
2021/12/04 15:29:18;;;;;;;2.70;2.50;;;7.80;98.60;;;;;;950449;147;27458;-81
2021/12/04 15:31:45;;;;;;;2.87;2.67;;;7.80;98.70;;;;;;956657;148;27323;-81
2021/12/04 15:34:12;;;;;;;2.87;2.67;;;7.80;98.80;;;;;;951454;147;27395;-80
2021/12/04 15:36:42;;;;;;;2.87;2.67;;;7.80;99.00;;;;;;954131;147;27309;-80
2021/12/04 15:39:09;;;;;;;2.90;2.70;;;7.80;99.20;;;;;;952808;147;27360;-80
2021/12/04 15:41:42;;;;;;;2.77;2.57;;;7.90;99.40;;;;;;951576;147;27341;-80
2021/12/04 15:44:10;;;;;;;2.97;2.77;;;7.90;99.40;;;;;;943382;150;27257;-80
2021/12/04 15:46:38;;;;;;;3.40;3.13;;;7.90;99.50;;;;;;952404;147;27405;-80
2021/12/04 15:54:19;;;;;;;4.10;3.80;;;7.90;99.70;;;;;;955335;149;27359;-80
2021/12/04 15:56:44;;;;;;;3.30;3.03;;;8.00;99.80;;;;;;955980;147;27428;-80
2021/12/04 15:59:25;;;;;;;2.90;2.70;;;8.00;99.90;;;;;;947872;147;27375;-80